Terminal Aerodrome Forecast
Issued by NWS

Home | Current Version | Previous Version | Text Only | Print | Product List | Glossary On
Versions: 1 2 3 4 5 6 7 8 9 10 11 12 13 14 15
000
FTUS43 KGRB 272000 AAA
TAFMTW
TAF AMD
KMTW 272040Z 2721/2818 14007KT P6SM SCT035 BKN200
      TEMPO 2721/2724 BKN035
     FM280000 16008KT P6SM VCSH SCT040 BKN150
     FM280400 20007KT P6SM VCSH SCT030 OVC050
      TEMPO 2804/2808 5SM -SHRA BR
     FM280800 26011KT P6SM -RA BKN015 OVC030
     FM281100 26012KT P6SM SCT015 BKN040
     FM281500 25016G25KT P6SM SCT040 BKN100=

USA.gov is the U.S. government's official web portal to all federal, state and local government web resources and services.